Liberty — WDF4885 — position and weather

sailwx.info

Track history (hours):
 
Tides and Currents Weather Stations Pressure Air Temp Water Temp Dewpoint Dewpoint Depression Visibility Wind Speed Wind Dir Waves Ship Positions

Liberty

Owner: Canal Barge Company, Inc., Belle Chasse, LA. More information available from US FCC via Universal Licensing System and Coast Guard Vessel Documentation Center.

Last reported at 2018-Jul-16 14:00 UTC. Time now 2018-Jul-16 14:33 UTC.
Position N 29°44' W 095°08'.

Length 25 m; draft 3 m.

MMSI: 367456870.

Date/timePositionNaut miles runAvg speedWind from/ knotsBaromVisibWave heightAir tempDewpointWater temp
2018-Jul-16 14:00N 29°44' W 095°08'0 0.0
2018-Jul-16 13:30N 29°44' W 095°08'0 0.0
2018-Jul-16 13:00N 29°44' W 095°08'0 0.0
2018-Jul-16 12:29N 29°44' W 095°08'0 0.0
2018-Jul-16 12:00N 29°44' W 095°08'0 0.0
2018-Jul-16 11:18N 29°44' W 095°08'0 0.0
2018-Jul-16 11:00N 29°44' W 095°08'0 0.0
2018-Jul-16 10:14N 29°44' W 095°08'0 0.0
2018-Jul-16 10:00N 29°44' W 095°08'0 0.0
2018-Jul-16 09:26N 29°44' W 095°08'0 0.0
2018-Jul-16 08:55N 29°44' W 095°08'0 0.0
2018-Jul-16 08:29N 29°44' W 095°08'0 0.0
2018-Jul-16 08:00N 29°44' W 095°08'0 0.0
2018-Jul-16 07:26N 29°44' W 095°08'0 0.0
2018-Jul-16 07:00N 29°44' W 095°08'0 0.0
2018-Jul-16 06:24N 29°44' W 095°08'0 0.0
2018-Jul-16 03:52N 29°44' W 095°08'0 0.7
2018-Jul-16 03:29N 29°44' W 095°08'2 0.1
2018-Jul-14 21:24N 29°45' W 095°10'1 2.9
2018-Jul-14 20:59N 29°44' W 095°09'2 0.2
2018-Jul-14 09:57N 29°45' W 095°06'0 0.3
2018-Jul-14 08:33N 29°45' W 095°06'0 0.0
2018-Jul-14 07:58N 29°45' W 095°06'0 0.0
2018-Jul-14 07:25N 29°45' W 095°06'0 0.0
2018-Jul-14 06:55N 29°45' W 095°06'0 0.0
2018-Jul-14 06:07N 29°45' W 095°06'0 0.0
2018-Jul-14 05:43N 29°45' W 095°06'0 0.0
2018-Jul-14 02:59N 29°45' W 095°06'0 0.0
2018-Jul-14 02:30N 29°45' W 095°06'0 0.0
2018-Jul-14 01:59N 29°45' W 095°06'0 0.0
2018-Jul-13 22:41N 29°45' W 095°06'0 0.0
2018-Jul-13 21:12N 29°45' W 095°06'0 0.0
2018-Jul-13 20:51N 29°45' W 095°06'0 0.0
2018-Jul-13 20:27N 29°45' W 095°06'0 0.3
2018-Jul-13 20:00N 29°45' W 095°06'3 0.1
2018-Jul-12 15:23N 29°45' W 095°10'2 0.4
2018-Jul-12 11:22N 29°44' W 095°08'0 0.0
2018-Jul-12 10:55N 29°44' W 095°08'0 0.0
2018-Jul-12 10:11N 29°44' W 095°08'0 0.0
2018-Jul-12 09:57N 29°44' W 095°08'0 0.0
2018-Jul-12 09:28N 29°44' W 095°08'0 0.0
2018-Jul-12 08:55N 29°44' W 095°08'0 0.0
2018-Jul-12 08:27N 29°44' W 095°08'0 0.0
2018-Jul-12 06:35N 29°44' W 095°08'0 0.0
2018-Jul-12 06:25N 29°44' W 095°08'0 0.0
2018-Jul-12 05:57N 29°44' W 095°08'0 0.0
2018-Jul-11 15:08N 29°44' W 095°08'0 0.0
2018-Jul-11 14:56N 29°44' W 095°08'0 0.2
2018-Jul-11 13:45N 29°44' W 095°08'0 0.0
2018-Jul-11 13:26N 29°44' W 095°08'0 0.0
2018-Jul-11 12:58N 29°44' W 095°08'0 0.0
2018-Jul-11 12:23N 29°44' W 095°08'0 0.0
2018-Jul-11 11:59N 29°44' W 095°08'0 0.0
2018-Jul-11 11:07N 29°44' W 095°08'0 0.0
2018-Jul-11 10:52N 29°44' W 095°08'0 0.0
2018-Jul-11 10:11N 29°44' W 095°08'0 0.0
2018-Jul-11 08:52N 29°44' W 095°08'0 0.0
2018-Jul-11 08:21N 29°44' W 095°08'0 0.0
2018-Jul-11 08:00N 29°44' W 095°08'0 0.0
2018-Jul-11 07:26N 29°44' W 095°08'0 0.0
2018-Jul-11 07:00N 29°44' W 095°08'0 0.0
2018-Jul-11 06:27N 29°44' W 095°08'0 0.0
2018-Jul-11 05:59N 29°44' W 095°08'0 0.0
2018-Jul-11 05:30N 29°44' W 095°08'0 0.0
2018-Jul-11 04:55N 29°44' W 095°08'0 0.0
2018-Jul-11 04:27N 29°44' W 095°08'0 0.0
2018-Jul-11 03:42N 29°44' W 095°08'0 0.0
2018-Jul-11 03:30N 29°44' W 095°08'0 0.0
2018-Jul-11 03:00N 29°44' W 095°08'0 0.0
2018-Jul-11 02:22N 29°44' W 095°08'0 0.0
2018-Jul-10 13:16N 29°44' W 095°08'0 0.0
2018-Jul-10 12:58N 29°44' W 095°08'0 0.0
2018-Jul-10 12:21N 29°44' W 095°08'0 0.0
2018-Jul-10 11:56N 29°44' W 095°08'0 0.0
2018-Jul-10 11:30N 29°44' W 095°08'0 0.0
2018-Jul-10 10:59N 29°44' W 095°08'0 0.0
2018-Jul-10 10:01N 29°44' W 095°08'0 0.3
2018-Jul-10 10:00N 29°44' W 095°08'0 0.0
2018-Jul-10 09:28N 29°44' W 095°08'0 0.0
2018-Jul-10 08:48N 29°44' W 095°08'0 0.0
2018-Jul-10 08:21N 29°44' W 095°08'0 0.0
2018-Jul-10 07:00N 29°44' W 095°08'0 0.0
2018-Jul-10 06:27N 29°44' W 095°08'0 0.0
2018-Jul-10 05:52N 29°44' W 095°08'0 0.0
2018-Jul-10 05:28N 29°44' W 095°08'0 0.0
2018-Jul-10 03:59N 29°44' W 095°08'0 0.0
2018-Jul-10 03:29N 29°44' W 095°08'0 0.0
2018-Jul-09 14:46N 29°44' W 095°08'0 0.0
2018-Jul-08 13:32N 29°44' W 095°08'0 0.0
2018-Jul-08 13:13N 29°44' W 095°08'0 0.0
2018-Jul-08 10:13N 29°44' W 095°08'0 0.0
2018-Jul-08 06:35N 29°44' W 095°08'0 0.0
2018-Jul-08 06:14N 29°44' W 095°08'0 0.0
2018-Jul-07 11:32N 29°44' W 095°08'0 0.0
2018-Jul-07 11:28N 29°44' W 095°08'0 0.0
2018-Jul-07 10:42N 29°44' W 095°08'0 0.0
2018-Jul-07 09:32N 29°44' W 095°08'0 0.0
2018-Jul-07 09:21N 29°44' W 095°08'1 0.1
2018-Jul-07 03:21N 29°44' W 095°07'1 0.2
2018-Jul-06 20:43N 29°45' W 095°06'0 0.0
2018-Jul-06 20:24N 29°45' W 095°06'0 0.0
2018-Jul-06 14:19N 29°45' W 095°06'  
Track history (hours):
 
Tides and Currents Weather Stations Pressure Air Temp Water Temp Dewpoint Dewpoint Depression Visibility Wind Speed Wind Dir Waves Ship Positions

Liberty

Owner: Canal Barge Company, Inc., Belle Chasse, LA. More information available from US FCC via Universal Licensing System and Coast Guard Vessel Documentation Center.

Last reported at 2018-Jul-16 14:00 UTC. Time now 2018-Jul-16 14:33 UTC.
Position N 29°44' W 095°08'.

Length 25 m; draft 3 m.

MMSI: 367456870.

Date/timePositionNaut miles runAvg speedWind from/ knotsBaromVisibWave heightAir tempDewpointWater temp
2018-Jul-16 14:00N 29°44' W 095°08'0 0.0
2018-Jul-16 13:30N 29°44' W 095°08'0 0.0
2018-Jul-16 13:00N 29°44' W 095°08'0 0.0
2018-Jul-16 12:29N 29°44' W 095°08'0 0.0
2018-Jul-16 12:00N 29°44' W 095°08'0 0.0
2018-Jul-16 11:18N 29°44' W 095°08'0 0.0
2018-Jul-16 11:00N 29°44' W 095°08'0 0.0
2018-Jul-16 10:14N 29°44' W 095°08'0 0.0
2018-Jul-16 10:00N 29°44' W 095°08'0 0.0
2018-Jul-16 09:26N 29°44' W 095°08'0 0.0
2018-Jul-16 08:55N 29°44' W 095°08'0 0.0
2018-Jul-16 08:29N 29°44' W 095°08'0 0.0
2018-Jul-16 08:00N 29°44' W 095°08'0 0.0
2018-Jul-16 07:26N 29°44' W 095°08'0 0.0
2018-Jul-16 07:00N 29°44' W 095°08'0 0.0
2018-Jul-16 06:24N 29°44' W 095°08'0 0.0
2018-Jul-16 03:52N 29°44' W 095°08'0 0.7
2018-Jul-16 03:29N 29°44' W 095°08'2 0.1
2018-Jul-14 21:24N 29°45' W 095°10'1 2.9
2018-Jul-14 20:59N 29°44' W 095°09'2 0.2
2018-Jul-14 09:57N 29°45' W 095°06'0 0.3
2018-Jul-14 08:33N 29°45' W 095°06'0 0.0
2018-Jul-14 07:58N 29°45' W 095°06'0 0.0
2018-Jul-14 07:25N 29°45' W 095°06'0 0.0
2018-Jul-14 06:55N 29°45' W 095°06'0 0.0
2018-Jul-14 06:07N 29°45' W 095°06'0 0.0
2018-Jul-14 05:43N 29°45' W 095°06'0 0.0
2018-Jul-14 02:59N 29°45' W 095°06'0 0.0
2018-Jul-14 02:30N 29°45' W 095°06'0 0.0
2018-Jul-14 01:59N 29°45' W 095°06'0 0.0
2018-Jul-13 22:41N 29°45' W 095°06'0 0.0
2018-Jul-13 21:12N 29°45' W 095°06'0 0.0
2018-Jul-13 20:51N 29°45' W 095°06'0 0.0
2018-Jul-13 20:27N 29°45' W 095°06'0 0.3
2018-Jul-13 20:00N 29°45' W 095°06'3 0.1
2018-Jul-12 15:23N 29°45' W 095°10'2 0.4
2018-Jul-12 11:22N 29°44' W 095°08'0 0.0
2018-Jul-12 10:55N 29°44' W 095°08'0 0.0
2018-Jul-12 10:11N 29°44' W 095°08'0 0.0
2018-Jul-12 09:57N 29°44' W 095°08'0 0.0
2018-Jul-12 09:28N 29°44' W 095°08'0 0.0
2018-Jul-12 08:55N 29°44' W 095°08'0 0.0
2018-Jul-12 08:27N 29°44' W 095°08'0 0.0
2018-Jul-12 06:35N 29°44' W 095°08'0 0.0
2018-Jul-12 06:25N 29°44' W 095°08'0 0.0
2018-Jul-12 05:57N 29°44' W 095°08'0 0.0
2018-Jul-11 15:08N 29°44' W 095°08'0 0.0
2018-Jul-11 14:56N 29°44' W 095°08'0 0.2
2018-Jul-11 13:45N 29°44' W 095°08'0 0.0
2018-Jul-11 13:26N 29°44' W 095°08'0 0.0
2018-Jul-11 12:58N 29°44' W 095°08'0 0.0
2018-Jul-11 12:23N 29°44' W 095°08'0 0.0
2018-Jul-11 11:59N 29°44' W 095°08'0 0.0
2018-Jul-11 11:07N 29°44' W 095°08'0 0.0
2018-Jul-11 10:52N 29°44' W 095°08'0 0.0
2018-Jul-11 10:11N 29°44' W 095°08'0 0.0
2018-Jul-11 08:52N 29°44' W 095°08'0 0.0
2018-Jul-11 08:21N 29°44' W 095°08'0 0.0
2018-Jul-11 08:00N 29°44' W 095°08'0 0.0
2018-Jul-11 07:26N 29°44' W 095°08'0 0.0
2018-Jul-11 07:00N 29°44' W 095°08'0 0.0
2018-Jul-11 06:27N 29°44' W 095°08'0 0.0
2018-Jul-11 05:59N 29°44' W 095°08'0 0.0
2018-Jul-11 05:30N 29°44' W 095°08'0 0.0
2018-Jul-11 04:55N 29°44' W 095°08'0 0.0
2018-Jul-11 04:27N 29°44' W 095°08'0 0.0
2018-Jul-11 03:42N 29°44' W 095°08'0 0.0
2018-Jul-11 03:30N 29°44' W 095°08'0 0.0
2018-Jul-11 03:00N 29°44' W 095°08'0 0.0
2018-Jul-11 02:22N 29°44' W 095°08'0 0.0
2018-Jul-10 13:16N 29°44' W 095°08'0 0.0
2018-Jul-10 12:58N 29°44' W 095°08'0 0.0
2018-Jul-10 12:21N 29°44' W 095°08'0 0.0
2018-Jul-10 11:56N 29°44' W 095°08'0 0.0
2018-Jul-10 11:30N 29°44' W 095°08'0 0.0
2018-Jul-10 10:59N 29°44' W 095°08'0 0.0
2018-Jul-10 10:01N 29°44' W 095°08'0 0.3
2018-Jul-10 10:00N 29°44' W 095°08'0 0.0
2018-Jul-10 09:28N 29°44' W 095°08'0 0.0
2018-Jul-10 08:48N 29°44' W 095°08'0 0.0
2018-Jul-10 08:21N 29°44' W 095°08'0 0.0
2018-Jul-10 07:00N 29°44' W 095°08'0 0.0
2018-Jul-10 06:27N 29°44' W 095°08'0 0.0
2018-Jul-10 05:52N 29°44' W 095°08'0 0.0
2018-Jul-10 05:28N 29°44' W 095°08'0 0.0
2018-Jul-10 03:59N 29°44' W 095°08'0 0.0
2018-Jul-10 03:29N 29°44' W 095°08'0 0.0
2018-Jul-09 14:46N 29°44' W 095°08'0 0.0
2018-Jul-08 13:32N 29°44' W 095°08'0 0.0
2018-Jul-08 13:13N 29°44' W 095°08'0 0.0
2018-Jul-08 10:13N 29°44' W 095°08'0 0.0
2018-Jul-08 06:35N 29°44' W 095°08'0 0.0
2018-Jul-08 06:14N 29°44' W 095°08'0 0.0
2018-Jul-07 11:32N 29°44' W 095°08'0 0.0
2018-Jul-07 11:28N 29°44' W 095°08'0 0.0
2018-Jul-07 10:42N 29°44' W 095°08'0 0.0
2018-Jul-07 09:32N 29°44' W 095°08'0 0.0
2018-Jul-07 09:21N 29°44' W 095°08'1 0.1
2018-Jul-07 03:21N 29°44' W 095°07'1 0.2
2018-Jul-06 20:43N 29°45' W 095°06'0 0.0
2018-Jul-06 20:24N 29°45' W 095°06'0 0.0
2018-Jul-06 14:19N 29°45' W 095°06'  

Dump ship's entire track history